Hauptseite
METAR-TAF:

METAR-TAF

Flughäfen :

Flughafen Klagenfurt

Klagenfurt, Österreich

Breite: 46-39N, Länge: 014-20E, Höhe: 448 m

Beobachtung

Neuester Wetterbericht von vor 34 Minuten, um 03:20 UTC
Wind 3 kt aus West/Nordwest
Temperatur 13°C
Luftfeuchtigkeit 94%
Luftdruck 1021 hPa
Sichtweite 10 km oder mehr

METAR: LOWK 160320Z AUTO 30003KT 9999 NSC 13/12 Q1021

Zeit: 05:54 (03:54 UTC)

Prognose

Neuester Wetterbericht von vor 4 Stunden und 39 Minuten, um 23:15 UTC
Gültige Prognose vom 16 um 00 UTC bis 16 um 24 UTC
Wind 2 kt aus unterschiedlichen Richtungen
Sichtweite 10 km oder mehr
Leicht bewölkt in der Höhe von 6000 ft
Wahrscheinlichkeit 30% :
Zeitweise
vom 16 um 02 UTC bis 16 um 06 UTC
Durchbrochene Bewölkung in der Höhe von 800 ft

TAF: LOWK 152315Z 1600/1624 VRB02KT 9999 FEW060 TX27/1615Z TN14/1604Z PROB30 TEMPO 1602/1606 BKN008

Wetterbeobachtungen und Prognosen von mehr als 4000 Flughäfen (METAR und TAF Bericht).

Die verfügbaren Stationen werden durch gelbe und rote Markierungen auf der Karte dargestellt.

Führen Sie die Maus auf sie, um den Namen der Station zu sehen.

Darauf klicken, um die Beobachtung von Wetterbeobachtungen und Prognosen zu sehen.

Um die Karte zu ändern : klicken Sie auf den grünen Tasten mit einem schwarzen Kreuz Zum Vergrößern, auf den grünen Button mit einem Gedankenstrich zu verkleinern, oder auf die grünen Pfeile für benachbarte Karten.


METAR-TAF: